createdAt,value
2023-02-22T00:01:50.582Z,17.20
2023-02-22T00:04:21.116Z,17.60
2023-02-22T00:06:48.891Z,17.00
2023-02-22T00:09:20.470Z,16.50
2023-02-22T00:11:48.755Z,17.50
2023-02-22T00:14:20.211Z,17.10
2023-02-22T00:16:47.251Z,17.00
2023-02-22T00:19:14.565Z,16.60
2023-02-22T00:21:41.777Z,16.70
2023-02-22T00:24:23.034Z,16.90
2023-02-22T00:26:57.678Z,17.30
2023-02-22T00:29:25.484Z,16.70
2023-02-22T00:31:52.686Z,16.60
2023-02-22T00:34:19.730Z,18.00
2023-02-22T00:36:48.632Z,17.30
2023-02-22T00:39:15.954Z,17.60
2023-02-22T00:41:43.437Z,17.50
2023-02-22T00:44:10.716Z,17.00
2023-02-22T00:46:37.946Z,16.50
2023-02-22T00:49:05.251Z,16.70
2023-02-22T00:51:33.809Z,16.90
2023-02-22T00:54:00.710Z,15.70
2023-02-22T00:56:27.780Z,16.40
2023-02-22T00:58:54.946Z,16.00
2023-02-22T01:01:24.119Z,16.10
2023-02-22T01:03:51.600Z,16.50
2023-02-22T01:06:19.029Z,16.70
2023-02-22T01:08:47.013Z,16.30
2023-02-22T01:11:15.996Z,16.50
2023-02-22T01:13:45.264Z,16.60
2023-02-22T01:16:12.426Z,16.10
2023-02-22T01:18:39.712Z,16.30
2023-02-22T01:21:06.923Z,16.70
2023-02-22T01:23:33.973Z,16.30
2023-02-22T01:26:01.355Z,16.90
2023-02-22T01:28:29.155Z,17.30
2023-02-22T01:30:56.814Z,16.60
2023-02-22T01:33:23.760Z,16.70
2023-02-22T01:35:51.194Z,18.90
2023-02-22T01:38:18.387Z,17.10
2023-02-22T01:40:49.479Z,15.70
2023-02-22T01:43:28.048Z,16.70
2023-02-22T01:46:08.147Z,17.10
2023-02-22T01:48:38.722Z,16.70
2023-02-22T01:51:11.138Z,16.90
2023-02-22T01:53:50.822Z,16.40
2023-02-22T01:56:19.220Z,16.30
2023-02-22T01:58:50.927Z,17.00
2023-02-22T02:01:19.880Z,16.90
2023-02-22T02:03:49.123Z,16.40
2023-02-22T02:06:16.851Z,15.60
2023-02-22T02:09:14.768Z,16.10
2023-02-22T02:11:42.099Z,15.60
2023-02-22T02:14:10.551Z,15.90
2023-02-22T02:16:43.581Z,15.70
2023-02-22T02:19:39.788Z,15.30
2023-02-22T02:22:19.454Z,16.30
2023-02-22T02:25:05.093Z,15.40
2023-02-22T02:28:01.417Z,15.20
2023-02-22T02:30:59.620Z,15.30
2023-02-22T02:33:44.809Z,16.80
2023-02-22T02:36:17.565Z,16.50
2023-02-22T02:38:54.492Z,16.80
2023-02-22T02:41:33.690Z,16.50
2023-02-22T02:44:05.754Z,16.90
2023-02-22T02:46:37.236Z,16.00
2023-02-22T02:49:15.424Z,14.90
2023-02-22T02:51:47.241Z,13.40
2023-02-22T02:54:15.244Z,12.50
2023-02-22T02:56:45.265Z,12.80
2023-02-22T02:59:33.609Z,11.40
2023-02-22T03:02:30.866Z,11.70
2023-02-22T03:05:07.381Z,9.50
2023-02-22T03:07:49.938Z,10.40
2023-02-22T03:10:19.885Z,11.80
2023-02-22T03:13:05.063Z,13.00
2023-02-22T03:15:53.258Z,13.30
2023-02-22T03:18:42.813Z,14.40
2023-02-22T03:21:27.583Z,14.30
2023-02-22T03:24:10.272Z,14.30
2023-02-22T03:27:11.754Z,13.80
2023-02-22T03:29:43.220Z,12.90
2023-02-22T03:32:15.910Z,13.50
2023-02-22T03:34:52.595Z,13.50
2023-02-22T03:37:23.561Z,10.90
2023-02-22T03:39:54.725Z,10.10
2023-02-22T03:42:26.017Z,9.40
2023-02-22T03:44:57.831Z,9.30
2023-02-22T03:47:37.782Z,8.30
2023-02-22T03:50:35.707Z,7.40
2023-02-22T03:53:03.733Z,8.80
2023-02-22T03:55:31.417Z,8.00
2023-02-22T03:57:59.968Z,8.00
2023-02-22T04:00:30.583Z,8.10
2023-02-22T04:02:57.799Z,8.70
2023-02-22T04:05:26.073Z,8.70
2023-02-22T04:07:54.185Z,8.80
2023-02-22T04:10:21.307Z,9.30
2023-02-22T04:12:48.616Z,10.20
2023-02-22T04:15:18.540Z,9.80
2023-02-22T04:17:45.720Z,11.30
2023-02-22T04:20:13.606Z,10.10
2023-02-22T04:22:41.205Z,10.90
2023-02-22T04:25:08.629Z,10.90
2023-02-22T04:27:35.685Z,10.70
2023-02-22T04:30:02.863Z,11.30
2023-02-22T04:32:30.118Z,11.70
2023-02-22T04:34:57.108Z,11.30
2023-02-22T04:37:24.422Z,11.00
2023-02-22T04:39:51.632Z,11.60
2023-02-22T04:42:19.275Z,12.60
2023-02-22T04:44:46.168Z,11.30
2023-02-22T04:47:13.148Z,11.10
2023-02-22T04:49:40.002Z,10.90
2023-02-22T04:52:06.999Z,11.70
2023-02-22T04:54:34.213Z,11.00
2023-02-22T04:57:01.214Z,12.20
2023-02-22T04:59:28.356Z,13.10
2023-02-22T05:01:55.554Z,12.90
2023-02-22T05:04:22.758Z,13.30
2023-02-22T05:06:49.843Z,12.70
2023-02-22T05:09:16.882Z,13.00
2023-02-22T05:11:43.792Z,13.30
2023-02-22T05:14:10.892Z,14.40
2023-02-22T05:16:38.008Z,14.80
2023-02-22T05:19:04.962Z,14.20
2023-02-22T05:21:31.923Z,15.80
2023-02-22T05:23:58.946Z,14.20
2023-02-22T05:26:26.031Z,14.90
2023-02-22T05:28:53.440Z,14.70
2023-02-22T05:31:20.661Z,14.20
2023-02-22T05:33:48.405Z,14.40
2023-02-22T05:36:16.712Z,14.10
2023-02-22T05:38:45.088Z,14.60
2023-02-22T05:41:13.369Z,14.70
2023-02-22T05:43:41.045Z,15.30
2023-02-22T05:46:08.285Z,15.40
2023-02-22T05:48:35.245Z,16.20
2023-02-22T05:51:02.667Z,15.90
2023-02-22T05:53:29.443Z,15.80
2023-02-22T05:55:56.322Z,15.30
2023-02-22T05:58:23.749Z,16.10
2023-02-22T06:00:50.873Z,14.70
2023-02-22T06:03:17.890Z,16.00
2023-02-22T06:05:45.247Z,15.40
2023-02-22T06:08:12.278Z,15.90
2023-02-22T06:10:39.350Z,15.80
2023-02-22T06:13:06.849Z,14.70
2023-02-22T06:15:34.087Z,15.90
2023-02-22T06:18:01.840Z,15.40
2023-02-22T06:20:30.258Z,15.00
2023-02-22T06:22:59.022Z,15.40
2023-02-22T06:25:27.954Z,15.80
2023-02-22T06:27:54.893Z,14.90
2023-02-22T06:30:24.254Z,14.20
2023-02-22T06:32:51.423Z,14.80
2023-02-22T06:35:18.987Z,17.30
2023-02-22T06:37:45.782Z,16.00
2023-02-22T06:40:13.250Z,14.10
2023-02-22T06:42:40.383Z,13.50
2023-02-22T06:45:08.444Z,13.40
2023-02-22T06:47:39.760Z,12.70
2023-02-22T06:50:07.596Z,12.00
2023-02-22T06:52:34.576Z,11.80
2023-02-22T06:55:01.416Z,13.00
2023-02-22T06:57:28.271Z,12.20
2023-02-22T06:59:55.399Z,12.40
2023-02-22T07:02:22.252Z,11.80
2023-02-22T07:04:49.420Z,11.30
2023-02-22T07:07:16.852Z,11.50
2023-02-22T07:09:46.546Z,12.50
2023-02-22T07:12:13.705Z,11.80
2023-02-22T07:14:40.378Z,12.10
2023-02-22T07:17:07.635Z,11.30
2023-02-22T07:19:34.770Z,11.20
2023-02-22T07:22:01.879Z,10.50
2023-02-22T07:24:28.889Z,10.20
2023-02-22T07:27:01.338Z,10.10
2023-02-22T07:29:28.237Z,9.90
2023-02-22T07:31:55.726Z,10.60
2023-02-22T07:34:22.914Z,10.40
2023-02-22T07:36:49.998Z,10.10
2023-02-22T07:39:17.179Z,9.80
2023-02-22T07:41:44.105Z,10.10
2023-02-22T07:44:11.064Z,10.00
2023-02-22T07:46:37.825Z,9.90
2023-02-22T07:49:05.251Z,9.50
2023-02-22T07:51:33.091Z,9.90
2023-02-22T07:54:00.249Z,10.00
2023-02-22T07:56:26.928Z,10.10
2023-02-22T07:58:54.515Z,10.00
2023-02-22T08:01:21.624Z,9.70
2023-02-22T08:03:48.548Z,9.90
2023-02-22T08:06:15.459Z,9.60
2023-02-22T08:08:42.821Z,10.50
2023-02-22T08:11:09.949Z,9.80
2023-02-22T08:13:38.464Z,9.70
2023-02-22T08:16:05.731Z,9.50
2023-02-22T08:18:32.574Z,9.40
2023-02-22T08:20:59.277Z,9.00
2023-02-22T08:23:26.958Z,9.10
2023-02-22T08:25:54.426Z,9.90
2023-02-22T08:28:23.599Z,10.30
2023-02-22T08:30:51.749Z,9.60
2023-02-22T08:33:20.043Z,7.90
2023-02-22T08:35:51.690Z,8.40
2023-02-22T08:38:28.516Z,8.50
2023-02-22T08:40:55.935Z,9.00
2023-02-22T08:43:23.397Z,9.50
2023-02-22T08:45:51.561Z,9.20
2023-02-22T08:48:19.128Z,8.30
2023-02-22T08:50:46.668Z,8.30
2023-02-22T08:53:15.238Z,7.70
2023-02-22T08:55:43.093Z,8.40
2023-02-22T08:58:10.607Z,8.30
2023-02-22T09:00:39.152Z,8.60
2023-02-22T09:03:13.093Z,8.20
2023-02-22T09:05:40.676Z,8.30
2023-02-22T09:08:07.373Z,8.40
2023-02-22T09:10:35.054Z,9.40
2023-02-22T09:13:02.535Z,9.00
2023-02-22T09:15:30.112Z,8.90
2023-02-22T09:17:57.490Z,9.40
2023-02-22T09:20:25.026Z,9.10
2023-02-22T09:22:53.093Z,9.30
2023-02-22T09:25:22.786Z,9.00
2023-02-22T09:27:51.305Z,9.70
2023-02-22T09:30:33.354Z,9.60
2023-02-22T09:33:03.588Z,9.90
2023-02-22T09:35:30.730Z,10.10
2023-02-22T09:37:58.958Z,10.10
2023-02-22T09:40:30.086Z,10.00
2023-02-22T09:43:08.098Z,9.70
2023-02-22T09:45:44.921Z,10.10
2023-02-22T09:48:21.775Z,10.00
2023-02-22T09:50:52.866Z,10.80
2023-02-22T09:53:30.859Z,10.90
2023-02-22T09:56:04.609Z,11.00
2023-02-22T09:58:36.715Z,10.60
2023-02-22T10:01:32.027Z,10.70
2023-02-22T10:04:18.719Z,10.40
2023-02-22T10:07:14.211Z,11.00
2023-02-22T10:09:43.385Z,10.50
2023-02-22T10:12:15.217Z,10.50
2023-02-22T10:15:13.083Z,10.50
2023-02-22T10:18:17.509Z,10.40
2023-02-22T10:21:02.379Z,10.20
2023-02-22T10:23:55.966Z,10.30
2023-02-22T10:26:26.780Z,10.70
2023-02-22T10:29:17.360Z,9.30
2023-02-22T10:31:52.374Z,9.90
2023-02-22T10:34:29.815Z,10.10
2023-02-22T10:37:18.085Z,9.70
2023-02-22T10:39:46.782Z,9.50
2023-02-22T10:42:13.934Z,9.00
2023-02-22T10:44:40.820Z,10.10
2023-02-22T10:47:10.878Z,10.10
2023-02-22T10:49:44.431Z,9.50
2023-02-22T10:52:20.179Z,9.80
2023-02-22T10:54:50.299Z,9.80
2023-02-22T10:57:22.894Z,9.20
2023-02-22T10:59:51.995Z,10.20
2023-02-22T11:02:21.462Z,10.20
2023-02-22T11:04:53.559Z,10.50
2023-02-22T11:07:29.872Z,9.40
2023-02-22T11:09:59.957Z,9.70
2023-02-22T11:12:29.930Z,9.70
2023-02-22T11:14:57.160Z,9.80
2023-02-22T11:17:34.600Z,9.80
2023-02-22T11:20:01.715Z,9.50
2023-02-22T11:22:41.195Z,9.60
2023-02-22T11:25:08.658Z,9.50
2023-02-22T11:27:40.302Z,9.10
2023-02-22T11:30:17.678Z,9.90
2023-02-22T11:32:48.444Z,9.70
2023-02-22T11:35:29.905Z,10.20
2023-02-22T11:38:12.373Z,9.50
2023-02-22T11:40:40.158Z,9.10
2023-02-22T11:43:12.049Z,9.40
2023-02-22T11:45:44.153Z,9.50
2023-02-22T11:48:21.005Z,8.50
2023-02-22T11:51:16.509Z,7.90
2023-02-22T11:54:25.438Z,8.20
2023-02-22T11:56:55.854Z,7.70
2023-02-22T12:00:01.806Z,8.10
2023-02-22T12:02:57.169Z,7.90
2023-02-22T12:05:40.498Z,7.80
2023-02-22T12:08:36.723Z,8.10
2023-02-22T12:11:10.133Z,7.70
2023-02-22T12:13:59.664Z,7.30
2023-02-22T12:16:45.026Z,7.20
2023-02-22T12:19:34.987Z,7.10
2023-02-22T12:22:09.935Z,6.70
2023-02-22T12:24:46.826Z,6.40
2023-02-22T12:27:37.050Z,6.60
2023-02-22T12:30:12.864Z,6.90
2023-02-22T12:32:50.709Z,6.50
2023-02-22T12:35:37.403Z,6.20
2023-02-22T12:38:25.860Z,5.00
2023-02-22T12:40:57.107Z,5.80
2023-02-22T12:43:35.607Z,5.90
2023-02-22T12:46:21.220Z,5.70
2023-02-22T12:49:00.718Z,6.00
2023-02-22T12:51:55.533Z,5.00
2023-02-22T12:54:31.781Z,6.20
2023-02-22T12:57:09.923Z,5.70
2023-02-22T12:59:47.753Z,5.90
2023-02-22T13:02:37.000Z,5.80
2023-02-22T13:05:03.823Z,5.30
2023-02-22T13:07:46.566Z,5.80
2023-02-22T13:10:19.307Z,5.90
2023-02-22T13:12:52.536Z,5.70
2023-02-22T13:15:42.876Z,5.80
2023-02-22T13:18:19.298Z,5.90
2023-02-22T13:20:59.037Z,5.60
2023-02-22T13:23:39.060Z,5.90
2023-02-22T13:26:36.243Z,5.90
2023-02-22T13:29:13.794Z,5.60
2023-02-22T13:31:54.857Z,5.50
2023-02-22T13:34:45.515Z,5.80
2023-02-22T13:37:27.809Z,5.80
2023-02-22T13:40:16.877Z,5.90
2023-02-22T13:42:59.703Z,5.50
2023-02-22T13:45:50.939Z,5.70
2023-02-22T13:48:33.916Z,7.50
2023-02-22T13:51:30.188Z,6.20
2023-02-22T13:54:07.543Z,5.80
2023-02-22T13:56:34.832Z,6.30
2023-02-22T13:59:04.268Z,5.50
2023-02-22T14:01:47.927Z,5.80
2023-02-22T14:04:22.880Z,5.60
2023-02-22T14:07:25.810Z,5.30
2023-02-22T14:09:57.502Z,5.40
2023-02-22T14:12:30.256Z,5.40
2023-02-22T14:15:28.733Z,6.10
2023-02-22T14:18:02.274Z,5.60
2023-02-22T14:20:37.118Z,5.30
2023-02-22T14:23:25.817Z,5.50
2023-02-22T14:25:53.527Z,5.70
2023-02-22T14:28:37.325Z,5.70
2023-02-22T14:31:25.513Z,5.30
2023-02-22T14:34:13.967Z,5.10
2023-02-22T14:37:08.022Z,5.40
2023-02-22T14:39:51.203Z,5.40
2023-02-22T14:42:34.023Z,5.20
2023-02-22T14:45:37.001Z,5.90
2023-02-22T14:48:46.966Z,4.90
2023-02-22T14:51:34.114Z,5.50
2023-02-22T14:54:42.148Z,5.30
2023-02-22T14:57:35.927Z,5.10
2023-02-22T15:00:29.633Z,5.40
2023-02-22T15:03:06.907Z,5.30
2023-02-22T15:05:45.842Z,5.70
2023-02-22T15:08:31.597Z,5.30
2023-02-22T15:11:52.347Z,5.60
2023-02-22T15:14:43.783Z,5.60
2023-02-22T15:17:54.534Z,6.10
2023-02-22T15:20:54.623Z,5.50
2023-02-22T15:23:32.751Z,5.50
2023-02-22T15:26:07.823Z,5.70
2023-02-22T15:29:04.638Z,5.70
2023-02-22T15:31:39.265Z,6.00
2023-02-22T15:34:24.647Z,5.80
2023-02-22T15:36:58.745Z,5.40
2023-02-22T15:39:33.172Z,5.30
2023-02-22T15:42:05.980Z,5.70
2023-02-22T15:44:40.153Z,6.00
2023-02-22T15:47:21.055Z,5.60
2023-02-22T15:50:21.317Z,5.70
2023-02-22T15:52:59.465Z,5.80
2023-02-22T15:55:38.269Z,6.00
2023-02-22T15:58:16.959Z,5.90
2023-02-22T16:00:47.093Z,6.10
2023-02-22T16:03:16.794Z,6.30
2023-02-22T16:05:49.503Z,5.90
2023-02-22T16:08:19.408Z,6.50
2023-02-22T16:11:02.331Z,6.40
2023-02-22T16:13:33.174Z,6.10
2023-02-22T16:16:23.589Z,6.40
2023-02-22T16:18:51.527Z,6.40
2023-02-22T16:21:23.642Z,6.40
2023-02-22T16:24:01.349Z,6.10
2023-02-22T16:26:34.446Z,6.20
2023-02-22T16:29:07.494Z,6.30
2023-02-22T16:31:36.976Z,6.50
2023-02-22T16:34:09.072Z,6.90
2023-02-22T16:36:45.479Z,7.10
2023-02-22T16:39:19.597Z,7.10
2023-02-22T16:41:46.706Z,7.70
2023-02-22T16:44:13.699Z,7.70
2023-02-22T16:46:41.950Z,8.10
2023-02-22T16:49:13.148Z,8.00
2023-02-22T16:51:47.578Z,8.20
2023-02-22T16:54:19.753Z,8.80
2023-02-22T16:56:46.477Z,8.60
2023-02-22T16:59:15.413Z,9.00
2023-02-22T17:01:42.961Z,9.00
2023-02-22T17:04:15.934Z,9.60
2023-02-22T17:06:42.689Z,9.60
2023-02-22T17:09:10.017Z,9.20
2023-02-22T17:11:37.910Z,9.40
2023-02-22T17:14:05.828Z,11.10
2023-02-22T17:16:32.873Z,10.60
2023-02-22T17:19:00.157Z,10.20
2023-02-22T17:21:27.130Z,9.50
2023-02-22T17:23:54.069Z,9.40
2023-02-22T17:26:20.868Z,9.90
2023-02-22T17:28:47.544Z,10.90
2023-02-22T17:31:26.557Z,10.80
2023-02-22T17:33:55.034Z,10.70
2023-02-22T17:36:23.478Z,10.30
2023-02-22T17:38:50.228Z,10.50
2023-02-22T17:41:16.713Z,10.70
2023-02-22T17:43:43.777Z,11.10
2023-02-22T17:46:10.591Z,11.40
2023-02-22T17:48:38.194Z,11.40
2023-02-22T17:51:06.917Z,11.40
2023-02-22T17:53:33.976Z,11.80
2023-02-22T17:56:06.127Z,11.80
2023-02-22T17:58:33.270Z,11.80
2023-02-22T18:01:00.277Z,12.20
2023-02-22T18:03:29.049Z,11.60
2023-02-22T18:05:58.018Z,12.00
2023-02-22T18:08:29.770Z,12.20
2023-02-22T18:10:56.901Z,12.00
2023-02-22T18:13:26.461Z,12.60
2023-02-22T18:15:53.699Z,12.60
2023-02-22T18:18:22.207Z,13.00
2023-02-22T18:20:51.606Z,12.80
2023-02-22T18:23:22.264Z,12.90
2023-02-22T18:26:08.967Z,13.50
2023-02-22T18:28:37.616Z,13.30
2023-02-22T18:31:15.702Z,13.40
2023-02-22T18:33:43.665Z,12.80
2023-02-22T18:36:14.206Z,13.20
2023-02-22T18:38:43.010Z,12.70
2023-02-22T18:41:12.234Z,13.00
2023-02-22T18:43:39.885Z,12.80
2023-02-22T18:46:15.043Z,12.50
2023-02-22T18:48:42.883Z,13.20
2023-02-22T18:51:11.792Z,14.30
2023-02-22T18:53:40.963Z,13.20
2023-02-22T18:56:10.532Z,14.00
2023-02-22T18:58:38.845Z,13.10
2023-02-22T19:01:07.279Z,13.70
2023-02-22T19:03:38.378Z,13.60
2023-02-22T19:06:10.694Z,14.20
2023-02-22T19:08:42.518Z,13.70
2023-02-22T19:11:19.057Z,14.50
2023-02-22T19:13:47.488Z,13.80
2023-02-22T19:16:16.558Z,13.10
2023-02-22T19:18:44.159Z,14.00
2023-02-22T19:21:13.892Z,14.50
2023-02-22T19:23:48.277Z,13.90
2023-02-22T19:26:20.618Z,14.40
2023-02-22T19:29:04.991Z,14.00
2023-02-22T19:31:33.922Z,14.30
2023-02-22T19:34:03.811Z,14.50
2023-02-22T19:36:35.317Z,14.40
2023-02-22T19:39:02.257Z,14.40
2023-02-22T19:41:29.604Z,13.60
2023-02-22T19:43:56.751Z,13.80
2023-02-22T19:46:24.902Z,14.90
2023-02-22T19:48:52.936Z,15.40
2023-02-22T19:51:26.386Z,14.10
2023-02-22T19:53:55.894Z,15.20
2023-02-22T19:56:27.226Z,14.60
2023-02-22T19:58:56.568Z,15.00
2023-02-22T20:01:26.423Z,14.60
2023-02-22T20:03:55.132Z,15.10
2023-02-22T20:06:26.297Z,14.80
2023-02-22T20:08:54.677Z,14.40
2023-02-22T20:11:22.843Z,14.50
2023-02-22T20:13:50.337Z,13.90
2023-02-22T20:16:17.299Z,14.90
2023-02-22T20:18:45.275Z,14.80
2023-02-22T20:21:18.657Z,14.50
2023-02-22T20:23:49.209Z,14.70
2023-02-22T20:26:26.434Z,15.10
2023-02-22T20:28:55.207Z,14.80
2023-02-22T20:31:23.043Z,14.40
2023-02-22T20:33:53.971Z,15.10
2023-02-22T20:36:24.219Z,15.90
2023-02-22T20:38:56.786Z,14.90
2023-02-22T20:41:26.987Z,14.20
2023-02-22T20:43:55.712Z,15.00
2023-02-22T20:46:23.840Z,16.50
2023-02-22T20:48:55.686Z,15.50
2023-02-22T20:51:23.371Z,16.10
2023-02-22T20:53:54.053Z,16.20
2023-02-22T20:56:23.817Z,15.50
2023-02-22T20:58:52.654Z,15.30
2023-02-22T21:01:20.832Z,15.30
2023-02-22T21:03:48.677Z,16.00
2023-02-22T21:06:17.036Z,16.80
2023-02-22T21:08:45.245Z,16.90
2023-02-22T21:11:14.628Z,17.30
2023-02-22T21:13:41.715Z,15.70
2023-02-22T21:16:15.258Z,16.10
2023-02-22T21:18:42.210Z,16.60
2023-02-22T21:21:10.434Z,16.20
2023-02-22T21:23:38.485Z,15.60
2023-02-22T21:26:05.334Z,16.30
2023-02-22T21:28:50.607Z,16.50
2023-02-22T21:31:19.188Z,17.00
2023-02-22T21:33:49.456Z,18.30
2023-02-22T21:36:16.549Z,16.60
2023-02-22T21:38:53.337Z,16.70
2023-02-22T21:41:21.615Z,16.20
2023-02-22T21:43:52.169Z,16.90
2023-02-22T21:46:20.019Z,16.10
2023-02-22T21:48:50.250Z,15.70
2023-02-22T21:51:19.970Z,16.40
2023-02-22T21:53:49.446Z,15.90
2023-02-22T21:56:19.005Z,16.30
2023-02-22T21:58:47.039Z,16.60
2023-02-22T22:01:17.587Z,15.90
2023-02-22T22:03:45.830Z,15.80
2023-02-22T22:06:13.960Z,15.40
2023-02-22T22:08:42.207Z,15.30
2023-02-22T22:11:14.875Z,16.80
2023-02-22T22:13:42.539Z,15.80
2023-02-22T22:16:18.624Z,16.00
2023-02-22T22:18:46.764Z,16.20
2023-02-22T22:21:22.672Z,16.20
2023-02-22T22:23:54.176Z,17.80
2023-02-22T22:26:24.443Z,17.00
2023-02-22T22:28:54.384Z,16.40
2023-02-22T22:31:23.722Z,17.20
2023-02-22T22:33:50.907Z,16.30
2023-02-22T22:36:21.240Z,17.40
2023-02-22T22:38:48.466Z,17.50
2023-02-22T22:41:17.665Z,17.10
2023-02-22T22:43:48.220Z,17.90
2023-02-22T22:46:16.825Z,18.80
2023-02-22T22:48:46.799Z,18.00
2023-02-22T22:51:21.200Z,17.90
2023-02-22T22:53:49.709Z,18.60
2023-02-22T22:56:57.237Z,19.00
2023-02-22T22:59:24.320Z,18.00
2023-02-22T23:01:52.356Z,18.20
2023-02-22T23:04:19.260Z,18.80
2023-02-22T23:06:49.866Z,18.50
2023-02-22T23:09:21.672Z,18.40
2023-02-22T23:11:56.995Z,16.80
2023-02-22T23:14:30.974Z,17.30
2023-02-22T23:17:03.141Z,18.00
2023-02-22T23:19:35.555Z,16.90
2023-02-22T23:22:05.223Z,17.40
2023-02-22T23:24:36.022Z,17.40
2023-02-22T23:27:06.912Z,18.10
2023-02-22T23:29:36.730Z,19.60
2023-02-22T23:32:05.750Z,19.40
2023-02-22T23:34:32.940Z,20.30
2023-02-22T23:36:59.882Z,20.40
2023-02-22T23:39:27.381Z,21.10
2023-02-22T23:42:01.719Z,20.60
2023-02-22T23:44:29.472Z,19.70
2023-02-22T23:46:56.874Z,19.50
2023-02-22T23:49:27.165Z,18.70
2023-02-22T23:51:54.059Z,18.80
2023-02-22T23:54:25.350Z,18.80
2023-02-22T23:57:02.415Z,18.00
2023-02-22T23:59:30.500Z,18.30
